Time;durP1;ratioP1;P1;durP2;ratioP2;P2;SDS_P1;SDS_P2;PMS_P1;PMS_P2;Temp;Humidity;BMP_temperature;BMP_pressure;BME280_temperature;BME280_humidity;BME280_pressure;Samples;Min_cycle;Max_cycle;Signal;HPM_P1;HPM_P2
2022/12/14 05:04:53;;;;;;;21.45;15.80;;;;;;;0.87;74.85;101978.78;1765952;80;21549;-59
2022/12/14 05:07:25;;;;;;;20.15;16.55;;;;;;;1.16;73.27;101978.14;1712583;82;21619;-58
2022/12/14 05:10:06;;;;;;;19.20;14.68;;;;;;;1.31;72.75;101981.66;1646970;86;21045;-58
2022/12/14 05:12:50;;;;;;;19.40;14.75;;;;;;;1.44;72.28;101985.98;1618630;87;21096;-58
2022/12/14 05:15:23;;;;;;;20.32;15.72;;;;;;;1.56;71.77;101985.55;1625005;87;21133;-58
2022/12/14 05:17:50;;;;;;;21.00;15.50;;;;;;;1.70;71.34;101993.69;1629384;87;21058;-56
2022/12/14 05:20:20;;;;;;;17.40;15.43;;;;;;;1.81;70.85;101992.37;1612907;87;21105;-56
2022/12/14 05:22:46;;;;;;;18.50;15.08;;;;;;;1.92;70.41;101993.58;1616275;87;21112;-56
2022/12/14 05:25:13;;;;;;;16.87;14.87;;;;;;;2.01;69.86;101987.06;1615260;87;21085;-56
2022/12/14 05:27:40;;;;;;;18.77;14.60;;;;;;;2.12;69.38;101995.11;1610141;87;21074;-56
2022/12/14 05:30:09;;;;;;;20.08;15.38;;;;;;;2.20;69.05;101991.97;1619494;87;21277;-56
2022/12/14 05:32:35;;;;;;;16.17;14.38;;;;;;;2.29;68.71;101992.64;1624579;87;21184;-56
2022/12/14 05:35:03;;;;;;;19.52;15.20;;;;;;;2.36;68.34;101997.16;1621810;87;21070;-56
2022/12/14 05:37:30;;;;;;;19.62;15.18;;;;;;;2.44;68.06;101998.27;1603751;87;21069;-56
2022/12/14 05:39:56;;;;;;;20.62;15.88;;;;;;;2.51;67.90;102005.35;1617196;86;21082;-56
2022/12/14 05:42:23;;;;;;;20.02;15.75;;;;;;;2.58;67.65;102003.84;1619371;87;21111;-56
2022/12/14 05:44:49;;;;;;;19.32;15.50;;;;;;;2.60;67.23;102004.33;1643980;85;21167;-56
2022/12/14 05:47:16;;;;;;;20.97;16.05;;;;;;;2.61;67.16;102003.92;1649841;86;21045;-56
2022/12/14 05:49:42;;;;;;;24.15;16.67;;;;;;;2.62;67.25;102005.24;1659191;84;21098;-56
2022/12/14 05:52:09;;;;;;;25.27;16.50;;;;;;;2.65;67.19;102007.92;1683200;84;21065;-56
2022/12/14 05:54:35;;;;;;;24.77;16.20;;;;;;;2.73;67.04;102010.30;1670168;84;21045;-56
2022/12/14 05:57:03;;;;;;;23.02;17.00;;;;;;;2.79;66.71;102005.34;1667155;83;21026;-56
2022/12/14 05:59:29;;;;;;;21.33;15.53;;;;;;;2.85;66.37;102009.37;1677506;84;21068;-56
2022/12/14 06:01:56;;;;;;;17.98;14.10;;;;;;;2.91;66.05;102015.09;1670806;84;21096;-56
2022/12/14 06:04:24;;;;;;;23.62;15.03;;;;;;;2.95;65.42;102019.09;1669254;84;21040;-56
2022/12/14 06:06:51;;;;;;;24.40;17.23;;;;;;;2.98;64.84;102021.77;1666059;84;21064;-56
2022/12/14 06:09:18;;;;;;;20.40;16.80;;;;;;;3.01;64.61;102034.70;1679806;84;21089;-56
2022/12/14 06:11:45;;;;;;;20.95;16.60;;;;;;;3.04;64.33;102032.23;1673569;83;21566;-56
2022/12/14 06:14:12;;;;;;;21.68;16.07;;;;;;;3.07;64.20;102027.16;1759867;80;21509;-56
2022/12/14 06:16:40;;;;;;;23.07;17.75;;;;;;;3.11;64.07;102031.56;1745742;79;21019;-56
2022/12/14 06:19:07;;;;;;;28.07;22.13;;;;;;;3.15;63.96;102030.81;1765801;80;21034;-56
2022/12/14 06:21:37;;;;;;;27.45;21.12;;;;;;;3.19;63.86;102043.37;1750396;80;21052;-56
2022/12/14 06:24:05;;;;;;;24.35;19.20;;;;;;;3.21;63.81;102039.99;1749392;80;21414;-56
2022/12/14 06:26:39;;;;;;;24.82;20.92;;;;;;;3.24;63.73;102038.81;1760168;80;21031;-56
2022/12/14 06:29:06;;;;;;;26.60;21.87;;;;;;;3.27;63.70;102051.77;1763872;80;21148;-56
2022/12/14 06:31:33;;;;;;;27.93;23.07;;;;;;;3.32;63.71;102049.74;1757818;80;21592;-56
2022/12/14 06:34:01;;;;;;;25.97;20.77;;;;;;;3.35;63.78;102053.67;1765048;80;21094;-56
2022/12/14 06:36:34;;;;;;;39.88;26.90;;;;;;;3.40;63.80;102049.53;1763726;80;21030;-56
2022/12/14 06:39:07;;;;;;;27.67;20.70;;;;;;;3.44;63.80;102052.25;1719210;81;21022;-56
2022/12/14 06:41:34;;;;;;;25.60;20.45;;;;;;;3.50;63.86;102056.67;1709915;82;21132;-56
2022/12/14 06:44:04;;;;;;;21.97;18.30;;;;;;;3.55;63.92;102055.08;1690382;83;21081;-56
2022/12/14 06:46:31;;;;;;;18.82;16.05;;;;;;;3.59;63.95;102054.33;1615842;86;21063;-56
2022/12/14 06:48:57;;;;;;;21.52;16.73;;;;;;;3.66;63.94;102058.83;1634386;85;21146;-56
2022/12/14 06:51:24;;;;;;;20.40;15.88;;;;;;;3.71;64.03;102068.85;1631908;86;21767;-56
2022/12/14 06:53:52;;;;;;;19.77;15.65;;;;;;;3.76;63.99;102066.84;1613481;87;21223;-56
2022/12/14 06:56:20;;;;;;;19.02;15.20;;;;;;;3.83;64.02;102069.17;1610752;87;21064;-56
2022/12/14 06:58:47;;;;;;;21.90;17.62;;;;;;;3.89;64.01;102064.18;1673022;84;21508;-56
2022/12/14 07:01:18;;;;;;;24.70;17.82;;;;;;;3.95;64.01;102065.62;1660274;84;21077;-56
2022/12/14 07:03:49;;;;;;;21.85;17.50;;;;;;;4.01;64.01;102069.23;1629524;86;21065;-56
2022/12/14 07:06:15;;;;;;;21.97;16.90;;;;;;;4.08;64.04;102070.27;1601193;88;21124;-56
2022/12/14 07:08:42;;;;;;;22.73;17.17;;;;;;;4.14;64.08;102066.55;1581936;89;21117;-56
2022/12/14 07:11:11;;;;;;;22.00;16.15;;;;;;;4.21;64.17;102065.86;1587082;89;21224;-56
2022/12/14 07:13:38;;;;;;;20.60;16.55;;;;;;;4.26;64.17;102059.53;1581294;89;21558;-56
2022/12/14 07:16:06;;;;;;;24.47;17.48;;;;;;;4.32;64.01;102042.94;1640800;86;21092;-56
2022/12/14 07:18:32;;;;;;;22.65;17.23;;;;;;;4.35;63.84;102054.17;1627666;86;21143;-56
2022/12/14 07:21:11;;;;;;;18.23;14.70;;;;;;;4.37;63.85;102052.95;1645677;86;21123;-56
2022/12/14 07:23:38;;;;;;;14.33;11.80;;;;;;;4.42;63.80;102061.23;1555638;91;21111;-56
2022/12/14 07:26:18;;;;;;;14.55;10.85;;;;;;;4.47;63.44;102060.91;1530734;93;21100;-56
2022/12/14 07:28:45;;;;;;;11.25;9.83;;;;;;;4.54;62.97;102064.09;1478434;96;21159;-56
2022/12/14 07:31:14;;;;;;;10.00;8.98;;;;;;;4.64;62.30;102064.76;1505589;93;21661;-56
2022/12/14 07:33:41;;;;;;;12.18;10.20;;;;;;;4.70;61.70;102070.05;1477239;95;21170;-56
2022/12/14 07:36:16;;;;;;;11.38;9.20;;;;;;;4.72;61.47;102075.23;1483392;96;21097;-56
2022/12/14 07:38:44;;;;;;;10.70;9.35;;;;;;;4.76;61.07;102081.80;1479694;95;21114;-56
2022/12/14 07:41:14;;;;;;;12.13;10.23;;;;;;;4.80;60.69;102082.31;1505399;94;21067;-56
2022/12/14 07:43:43;;;;;;;12.45;11.10;;;;;;;4.85;60.42;102082.42;1548484;90;21192;-56
2022/12/14 07:46:13;;;;;;;11.78;10.53;;;;;;;4.89;60.22;102083.83;1531763;91;21094;-56
2022/12/14 07:48:48;;;;;;;12.58;10.48;;;;;;;4.93;60.04;102088.63;1532937;92;21078;-56
2022/12/14 07:51:17;;;;;;;12.37;10.13;;;;;;;4.98;60.22;102090.02;1526892;92;21126;-56
2022/12/14 07:53:43;;;;;;;10.90;9.60;;;;;;;5.05;60.02;102093.20;1550447;90;21055;-56
2022/12/14 08:49:58;;;;;;;8.28;7.42;;;;;;;3.63;66.41;102105.94;1789627;78;27092;-56
2022/12/14 08:52:25;;;;;;;9.28;7.90;;;;;;;4.70;62.25;102100.11;1755763;80;20999;-56
2022/12/14 08:54:51;;;;;;;8.45;7.28;;;;;;;4.97;61.27;102096.03;1756702;80;21029;-55
2022/12/14 08:57:18;;;;;;;8.18;6.72;;;;;;;5.13;60.79;102096.81;1755629;80;21046;-56
2022/12/14 08:59:46;;;;;;;7.60;6.80;;;;;;;5.27;60.25;102095.39;1753497;80;21002;-56
2022/12/14 09:02:12;;;;;;;8.03;6.92;;;;;;;5.39;59.71;102095.23;1754039;81;20998;-56
2022/12/14 09:04:39;;;;;;;7.55;6.60;;;;;;;5.50;59.21;102096.74;1754564;81;21111;-55
2022/12/14 09:07:05;;;;;;;8.25;6.17;;;;;;;5.58;58.58;102090.02;1758742;80;21180;-55
2022/12/14 09:09:36;;;;;;;5.70;5.10;;;;;;;5.69;57.99;102098.83;1754001;81;21072;-56
2022/12/14 09:12:06;;;;;;;6.10;5.50;;;;;;;5.82;57.28;102095.64;1762651;79;21019;-56
2022/12/14 09:14:33;;;;;;;5.53;4.80;;;;;;;5.95;56.86;102095.08;1747632;80;21021;-56
2022/12/14 09:17:00;;;;;;;5.58;5.08;;;;;;;6.07;55.92;102087.54;1753500;80;21026;-56
2022/12/14 09:19:27;;;;;;;5.50;4.85;;;;;;;6.16;55.61;102090.27;1758961;80;21037;-56
2022/12/14 09:21:54;;;;;;;5.83;4.67;;;;;;;6.25;55.22;102095.60;1756056;80;21033;-56
2022/12/14 09:24:21;;;;;;;5.87;5.28;;;;;;;6.34;54.26;102089.72;1764091;80;21001;-56
2022/12/14 09:26:48;;;;;;;6.30;5.20;;;;;;;6.39;53.79;102079.89;1752614;80;21005;-56
2022/12/14 09:29:17;;;;;;;5.67;4.97;;;;;;;6.44;53.37;102087.32;1764054;80;21039;-56
2022/12/14 09:31:43;;;;;;;6.58;5.53;;;;;;;6.49;53.23;102082.23;1761145;80;21096;-55
2022/12/14 09:34:10;;;;;;;6.03;5.42;;;;;;;6.52;52.93;102077.97;1756904;80;21067;-56
2022/12/14 09:36:36;;;;;;;5.90;5.30;;;;;;;6.55;52.70;102067.65;1756014;80;21538;-56
2022/12/14 09:39:03;;;;;;;6.60;5.90;;;;;;;6.59;52.72;102064.27;1719854;81;21033;-56
2022/12/14 09:41:38;;;;;;;6.80;6.08;;;;;;;6.62;52.63;102067.74;1758075;80;22574;-56
2022/12/14 09:44:37;;;;;;;6.55;5.87;;;;;;;6.64;52.70;102064.75;1765622;80;22353;-56
2022/12/14 09:47:34;;;;;;;10.18;6.33;;;;;;;6.65;52.75;102055.75;1755588;81;21089;-56
2022/12/14 09:50:04;;;;;;;6.35;5.75;;;;;;;6.68;52.48;102060.95;1769175;80;21485;-56
2022/12/14 09:52:39;;;;;;;7.58;6.33;;;;;;;6.72;52.28;102060.59;1750250;81;21045;-56
2022/12/14 09:55:44;;;;;;;7.58;6.30;;;;;;;6.73;52.20;102055.84;1777929;80;21006;-56
2022/12/14 09:58:19;;;;;;;7.12;6.42;;;;;;;6.75;52.32;102051.56;1758403;80;21049;-55
2022/12/14 10:00:57;;;;;;;6.67;5.90;;;;;;;6.79;52.67;102045.59;1766939;80;21089;-55
2022/12/14 10:04:02;;;;;;;7.28;5.92;;;;;;;6.83;52.50;102044.78;1747253;80;21108;-56
2022/12/14 10:06:49;;;;;;;6.67;6.03;;;;;;;6.86;52.31;102039.67;1768992;80;21077;-56
2022/12/14 10:09:29;;;;;;;7.35;6.35;;;;;;;6.89;52.37;102034.52;1763983;80;21022;-55
2022/12/14 10:12:22;;;;;;;7.65;6.37;;;;;;;6.91;52.33;102030.23;1767741;80;21042;-56
2022/12/14 10:15:10;;;;;;;6.67;5.97;;;;;;;6.96;51.97;102028.59;1751826;80;21540;-55
2022/12/14 10:17:51;;;;;;;7.20;5.65;;;;;;;7.02;51.75;102028.66;1754275;80;21503;-56
2022/12/14 10:20:30;;;;;;;7.25;6.30;;;;;;;7.09;51.58;102030.50;1762775;80;20999;-55
2022/12/14 10:22:56;;;;;;;6.72;6.03;;;;;;;7.15;51.22;102022.80;1665971;85;21585;-56
2022/12/14 10:25:29;;;;;;;6.50;5.80;;;;;;;7.22;51.17;102031.06;1666351;85;21027;-56
2022/12/14 10:28:03;;;;;;;6.72;6.03;;;;;;;7.25;51.10;102025.94;1644555;86;21114;-56
2022/12/14 10:30:30;;;;;;;7.22;6.05;;;;;;;7.30;50.78;102034.61;1522477;93;21136;-56
2022/12/14 10:33:12;;;;;;;6.80;5.87;;;;;;;7.32;50.68;102030.33;1518743;93;21075;-56
2022/12/14 10:35:51;;;;;;;6.92;6.22;;;;;;;7.33;50.42;102035.96;1505062;93;21199;-55
2022/12/14 10:38:24;;;;;;;6.92;6.00;;;;;;;7.34;50.66;102040.27;1519040;92;21107;-56
2022/12/14 10:41:15;;;;;;;6.75;5.90;;;;;;;7.34;50.81;102041.15;1513549;93;21071;-56
2022/12/14 10:43:59;;;;;;;6.42;5.83;;;;;;;7.37;50.89;102044.20;1453567;96;21119;-56
2022/12/14 10:46:43;;;;;;;6.58;5.95;;;;;;;7.39;51.11;102039.92;1500445;94;21154;-56
2022/12/14 10:49:19;;;;;;;6.80;6.20;;;;;;;7.42;50.91;102037.80;1521343;93;21105;-56
2022/12/14 10:51:54;;;;;;;6.97;5.95;;;;;;;7.44;51.04;102031.75;1425106;99;21125;-55
2022/12/14 10:54:38;;;;;;;6.60;6.00;;;;;;;7.46;51.16;102030.05;1347064;105;21655;-55
2022/12/14 10:57:04;;;;;;;6.70;5.72;;;;;;;7.50;50.84;102033.11;1333842;106;21157;-56
2022/12/14 10:59:36;;;;;;;7.22;6.53;;;;;;;7.54;50.76;102028.86;1357977;102;21123;-56
2022/12/14 11:02:06;;;;;;;7.33;6.60;;;;;;;7.58;50.95;102026.33;1386301;103;22166;-56
2022/12/14 11:04:38;;;;;;;7.42;6.65;;;;;;;7.61;50.93;102022.87;1415867;100;21336;-56
2022/12/14 11:07:07;;;;;;;7.03;6.20;;;;;;;7.64;50.92;102019.03;1412349;100;21157;-56
2022/12/14 11:09:36;;;;;;;7.50;6.00;;;;;;;7.65;51.19;102013.86;1413552;99;21634;-56
2022/12/14 11:12:07;;;;;;;7.28;6.37;;;;;;;7.68;50.87;102018.21;1421980;100;21091;-56
2022/12/14 11:14:35;;;;;;;7.42;6.25;;;;;;;7.68;50.92;102013.03;1411641;99;21744;-56
2022/12/14 11:17:02;;;;;;;7.12;6.33;;;;;;;7.67;50.87;102017.34;1414562;100;21143;-56
2022/12/14 11:19:28;;;;;;;7.30;6.33;;;;;;;7.67;50.67;102021.22;1411195;99;21716;-56
2022/12/14 11:22:12;;;;;;;6.90;5.75;;;;;;;7.67;50.63;102019.05;1404032;101;21185;-56
2022/12/14 11:24:45;;;;;;;6.33;5.78;;;;;;;7.66;50.71;102015.61;1428187;98;21579;-56
2022/12/14 11:27:12;;;;;;;6.92;5.80;;;;;;;7.67;50.84;102025.11;1482838;93;21049;-56
2022/12/14 11:29:39;;;;;;;7.33;6.62;;;;;;;7.65;50.91;102013.86;1525040;93;21117;-56
2022/12/14 11:32:05;;;;;;;6.87;6.08;;;;;;;7.65;51.37;102006.09;1568668;89;21084;-56
2022/12/14 11:34:39;;;;;;;6.28;5.67;;;;;;;7.66;51.34;102007.84;1560389;89;21085;-56
2022/12/14 11:37:26;;;;;;;7.05;5.67;;;;;;;7.69;51.29;102002.67;1578174;89;21052;-56
2022/12/14 11:39:59;;;;;;;7.53;5.67;;;;;;;7.72;51.07;102005.73;1543410;91;21109;-56
2022/12/14 11:42:27;;;;;;;7.15;5.50;;;;;;;7.74;50.95;102001.02;1568321;89;21068;-56
2022/12/14 11:44:54;;;;;;;5.90;5.30;;;;;;;7.74;50.92;102001.02;1579265;89;21104;-56
2022/12/14 11:47:25;;;;;;;6.58;5.70;;;;;;;7.75;50.97;101999.30;1572947;89;21084;-56
2022/12/14 11:49:53;;;;;;;5.78;5.17;;;;;;;7.76;50.70;101999.30;1644096;86;21164;-56
2022/12/14 11:52:27;;;;;;;6.35;5.72;;;;;;;7.79;50.63;101993.29;1702245;84;21062;-56
2022/12/14 11:55:02;;;;;;;6.87;5.72;;;;;;;7.79;50.89;101996.72;1687841;83;21101;-56
2022/12/14 11:57:35;;;;;;;6.20;5.60;;;;;;;7.84;51.08;101988.58;1705800;84;21065;-56
2022/12/14 12:00:06;;;;;;;5.87;5.12;;;;;;;7.89;50.82;101989.92;1708829;84;20995;-56
2022/12/14 12:02:37;;;;;;;;;;;;;;;7.90;50.82;101984.74;1700379;83;21509;-56
2022/12/14 12:05:12;;;;;;;5.80;4.90;;;;;;;7.93;50.91;101990.39;1705892;84;20449;-55
2022/12/14 12:07:44;;;;;;;5.72;5.12;;;;;;;7.91;50.81;101989.05;1683901;83;21019;-55
2022/12/14 12:10:35;;;;;;;6.62;5.05;;;;;;;7.91;50.71;101985.63;1666310;84;21098;-55
2022/12/14 12:13:05;;;;;;;6.47;5.67;;;;;;;7.88;50.48;101982.56;1605501;88;21104;-56
2022/12/14 12:15:41;;;;;;;6.95;5.30;;;;;;;7.85;51.00;101983.81;1661385;85;21059;-56
2022/12/14 12:18:15;;;;;;;5.80;5.20;;;;;;;7.85;51.23;101986.41;1673078;85;21040;-56
2022/12/14 12:21:18;;;;;;;6.10;5.50;;;;;;;7.87;50.85;101986.00;1668656;85;21063;-56
2022/12/14 12:24:13;;;;;;;5.12;4.60;;;;;;;7.88;50.71;101982.56;1663767;84;21097;-56
2022/12/14 12:26:59;;;;;;;6.80;5.50;;;;;;;7.90;50.72;101984.74;1675055;85;21548;-56
2022/12/14 12:29:56;;;;;;;5.55;4.65;;;;;;;7.91;50.71;101995.53;1666587;85;21036;-55
2022/12/14 12:32:28;;;;;;;4.50;4.05;;;;;;;7.90;50.94;102002.01;1661837;85;21061;-56
2022/12/14 12:35:20;;;;;;;4.72;4.28;;;;;;;7.88;50.76;102008.90;1647067;85;21196;-56
2022/12/14 12:38:20;;;;;;;4.97;4.47;;;;;;;7.87;50.61;102000.25;1602193;88;21060;-56
2022/12/14 12:41:07;;;;;;;4.80;4.30;;;;;;;7.85;50.36;102004.55;1547544;90;21134;-56
2022/12/14 12:43:45;;;;;;;4.72;4.33;;;;;;;7.86;50.37;102011.48;1545456;90;21054;-56
2022/12/14 12:46:16;;;;;;;4.78;4.20;;;;;;;7.84;50.52;101993.76;1533971;92;21568;-56
2022/12/14 12:48:51;;;;;;;4.75;4.00;;;;;;;7.85;50.43;101987.70;1542246;92;21145;-55
2022/12/14 12:51:25;;;;;;;4.62;4.15;;;;;;;7.84;50.41;101989.87;1521542;93;21118;-56
2022/12/14 12:53:59;;;;;;;4.05;3.70;;;;;;;7.82;50.69;101979.92;1453649;98;21672;-56
2022/12/14 12:56:48;;;;;;;4.37;3.80;;;;;;;7.80;50.54;101993.30;1473663;97;21601;-55
2022/12/14 12:59:23;;;;;;;4.78;4.28;;;;;;;7.76;50.51;101990.23;1464036;98;21626;-56
2022/12/14 13:01:54;;;;;;;5.67;4.35;;;;;;;7.74;50.83;101982.87;1410574;101;21132;-56
2022/12/14 13:04:29;;;;;;;5.22;3.80;;;;;;;7.74;51.24;101968.63;1428158;99;21166;-56
2022/12/14 13:07:30;;;;;;;5.58;4.20;;;;;;;7.78;51.44;101983.77;1358417;103;21134;-56
2022/12/14 13:10:02;;;;;;;5.08;4.10;;;;;;;7.78;51.74;101982.05;1411118;100;21214;-55
2022/12/14 13:12:36;;;;;;;5.62;4.22;;;;;;;7.78;51.65;101984.64;1405092;100;21165;-55
2022/12/14 13:15:06;;;;;;;5.10;4.45;;;;;;;7.76;51.74;101990.23;1368118;104;21658;-56
2022/12/14 13:17:50;;;;;;;4.27;3.67;;;;;;;7.74;52.09;101982.87;1371488;101;21244;-56
2022/12/14 13:20:24;;;;;;;4.60;4.20;;;;;;;7.75;52.42;101987.64;1387133;101;21238;-55
2022/12/14 13:22:50;;;;;;;5.40;4.33;;;;;;;7.74;52.39;101989.77;1411333;100;21224;-56
2022/12/14 13:25:46;;;;;;;4.53;4.12;;;;;;;7.73;52.56;101986.30;1416336;100;21130;-56
2022/12/14 13:28:50;;;;;;;3.75;2.90;;;;;;;7.74;53.13;101992.36;1410475;101;21240;-55
2022/12/14 13:31:49;;;;;;;3.80;3.50;;;;;;;7.75;53.74;101995.41;1370636;104;21260;-56
2022/12/14 13:34:51;;;;;;;3.77;3.40;;;;;;;7.76;54.13;101986.34;1341629;106;21213;-55
2022/12/14 13:38:14;;;;;;;3.58;3.27;;;;;;;7.79;54.31;101994.12;1347435;105;21157;-55
2022/12/14 13:41:05;;;;;;;;;;;;;;;7.79;54.20;101981.63;1337584;106;21217;-56
2022/12/14 13:43:50;;;;;;;4.62;3.62;;;;;;;7.78;54.69;101980.75;1317724;108;20267;-55
2022/12/14 13:46:25;;;;;;;4.58;3.40;;;;;;;7.75;54.79;101972.94;1328873;106;21680;-55
2022/12/14 13:49:23;;;;;;;5.65;2.87;;;;;;;7.74;54.99;101968.63;1333709;106;21302;-55
2022/12/14 13:51:49;;;;;;;5.22;3.10;;;;;;;7.74;55.35;101967.33;1345586;106;21657;-56
2022/12/14 13:54:29;;;;;;;3.15;2.77;;;;;;;7.74;55.43;101969.92;1337039;106;21270;-55
2022/12/14 13:57:12;;;;;;;2.95;2.75;;;;;;;7.78;55.53;101969.52;1310834;108;21191;-56
2022/12/14 13:59:46;;;;;;;3.75;2.95;;;;;;;7.83;55.29;101979.50;1308323;108;21191;-55
2022/12/14 14:02:33;;;;;;;3.27;3.02;;;;;;;7.86;55.55;101974.33;1323639;106;21212;-55
2022/12/14 14:05:23;;;;;;;3.98;3.58;;;;;;;7.88;55.45;101972.62;1336020;105;21717;-55
2022/12/14 14:08:03;;;;;;;3.65;3.27;;;;;;;7.89;55.73;101976.97;1384895;101;21143;-55
2022/12/14 14:10:34;;;;;;;3.80;3.40;;;;;;;7.87;56.03;101974.34;1374844;103;21119;-56
2022/12/14 14:13:22;;;;;;;;;;;;;;;7.86;56.03;101979.09;1338848;106;21194;-55
2022/12/14 14:15:51;;;;;;;4.75;3.67;;;;;;;7.86;55.95;101972.61;1337535;105;20156;-55
2022/12/14 14:18:22;;;;;;;5.83;3.37;;;;;;;7.86;56.25;101980.81;1366799;101;21163;-55
2022/12/14 14:21:00;;;;;;;3.72;3.42;;;;;;;7.87;56.13;101978.22;1346029;105;21259;-56
2022/12/14 14:23:31;;;;;;;4.53;3.40;;;;;;;7.92;56.27;101976.55;1290201;110;21310;-55
2022/12/14 14:26:26;;;;;;;6.72;3.72;;;;;;;7.96;56.38;101974.42;1274875;111;21210;-56
2022/12/14 14:29:15;;;;;;;3.67;3.30;;;;;;;7.99;56.27;101974.88;1251030;113;21659;-56
2022/12/14 14:31:46;;;;;;;3.67;3.37;;;;;;;8.00;56.10;101963.23;1328584;105;21255;-56
2022/12/14 14:34:20;;;;;;;4.13;3.57;;;;;;;8.00;56.40;101959.76;1390503;102;21665;-55
2022/12/14 14:36:47;;;;;;;7.58;3.40;;;;;;;7.99;56.49;101965.81;1386065;102;21119;-55
2022/12/14 14:39:36;;;;;;;6.00;3.98;;;;;;;7.99;56.74;101954.15;1391197;101;21158;-56
2022/12/14 14:42:06;;;;;;;4.58;3.37;;;;;;;7.99;57.02;101961.51;1404018;101;21647;-55
2022/12/14 14:44:37;;;;;;;4.95;4.28;;;;;;;8.02;56.95;101938.19;1428651;98;21288;-56
2022/12/14 14:47:25;;;;;;;7.22;3.90;;;;;;;8.02;57.18;101947.26;1445250;99;21279;-56
2022/12/14 14:49:56;;;;;;;4.80;3.65;;;;;;;8.02;56.92;101948.55;1402164;101;21160;-55
2022/12/14 14:52:44;;;;;;;6.50;4.17;;;;;;;8.02;57.02;101949.84;1395886;101;21243;-56
2022/12/14 14:55:35;;;;;;;7.05;4.20;;;;;;;8.02;57.30;101953.73;1403054;100;21143;-55
2022/12/14 14:58:11;;;;;;;5.13;3.50;;;;;;;8.04;57.62;101951.15;1407116;100;21085;-56
2022/12/14 15:00:50;;;;;;;4.62;3.65;;;;;;;8.04;57.47;101954.61;1376444;102;21148;-55
2022/12/14 15:03:25;;;;;;;4.75;4.17;;;;;;;8.05;57.63;101961.55;1400617;101;21184;-56
2022/12/14 15:05:52;;;;;;;5.35;3.83;;;;;;;8.08;57.39;101961.55;1438849;99;21206;-55
2022/12/14 15:08:39;;;;;;;7.33;3.98;;;;;;;8.08;57.39;101949.02;1475356;95;21097;-55
2022/12/14 15:11:14;;;;;;;4.97;4.03;;;;;;;8.09;57.38;101955.53;1486533;94;21215;-56
2022/12/14 15:14:02;;;;;;;5.83;3.70;;;;;;;8.08;57.51;101949.89;1423439;99;21116;-55
2022/12/14 15:16:35;;;;;;;7.17;3.90;;;;;;;8.07;57.46;101950.77;1423574;99;21222;-55
2022/12/14 15:19:32;;;;;;;7.85;3.65;;;;;;;8.07;57.53;101957.25;1426845;99;21077;-55
2022/12/14 15:21:59;;;;;;;5.08;3.87;;;;;;;8.07;57.87;101959.84;1430993;98;21160;-55
2022/12/14 15:24:26;;;;;;;4.70;3.45;;;;;;;8.09;57.90;101950.34;1481238;93;21577;-56
2022/12/14 15:26:53;;;;;;;6.08;3.75;;;;;;;8.12;58.13;101947.77;1538739;90;21116;-55
2022/12/14 15:29:26;;;;;;;6.47;4.25;;;;;;;8.15;58.11;101952.98;1568072;90;21122;-56
2022/12/14 15:31:57;;;;;;;6.65;4.40;;;;;;;8.17;57.82;101950.39;1586185;90;21099;-55
2022/12/14 15:34:23;;;;;;;7.42;3.95;;;;;;;8.16;58.20;101940.44;1571350;90;21104;-56
2022/12/14 15:36:50;;;;;;;5.12;3.80;;;;;;;8.15;58.37;101940.02;1588887;85;21095;-56
2022/12/14 15:42:14;;;;;;;4.30;3.62;;;;;;;8.20;58.22;101946.08;1581886;89;21595;-56
2022/12/14 15:44:51;;;;;;;13.03;4.20;;;;;;;8.22;58.24;101944.38;1578357;89;21649;-56
2022/12/14 15:47:29;;;;;;;4.33;3.85;;;;;;;8.26;58.18;101939.25;1584382;89;21078;-57
2022/12/14 15:50:26;;;;;;;6.50;3.92;;;;;;;8.29;58.30;101935.36;1588760;90;21127;-55
2022/12/14 15:52:58;;;;;;;5.28;3.77;;;;;;;8.29;58.42;101939.25;1588549;89;21062;-56
2022/12/14 15:55:37;;;;;;;8.88;4.60;;;;;;;8.30;58.34;101937.12;1531495;92;21143;-55
2022/12/14 15:58:31;;;;;;;6.87;4.42;;;;;;;8.33;58.44;101939.29;1538004;91;21562;-56
2022/12/14 16:01:12;;;;;;;4.53;3.65;;;;;;;8.37;58.82;101932.39;1542546;92;21113;-55
2022/12/14 16:03:42;;;;;;;5.58;4.33;;;;;;;8.42;58.64;101935.89;1540671;92;21091;-56
2022/12/14 16:06:09;;;;;;;5.60;4.05;;;;;;;8.46;58.49;101932.45;1552643;92;21118;-55
2022/12/14 16:08:38;;;;;;;6.47;4.35;;;;;;;8.46;58.58;101932.45;1535554;92;21113;-55
2022/12/14 16:11:27;;;;;;;6.83;5.12;;;;;;;8.46;58.92;101932.45;1565746;89;21106;-55
2022/12/14 16:13:54;;;;;;;11.93;8.33;;;;;;;8.48;59.11;101924.25;1563871;90;21158;-55
2022/12/14 16:16:21;;;;;;;8.35;6.78;;;;;;;8.50;59.29;101923.83;1562166;91;21572;-55
2022/12/14 16:18:49;;;;;;;7.60;4.80;;;;;;;8.53;59.19;101926.45;1557690;90;21149;-56
2022/12/14 16:21:29;;;;;;;7.97;5.78;;;;;;;8.56;59.36;101922.56;1560079;90;21666;-56
2022/12/14 16:23:57;;;;;;;6.00;4.55;;;;;;;8.62;59.62;101921.29;1559034;91;21072;-56
2022/12/14 16:26:29;;;;;;;5.00;3.72;;;;;;;8.68;59.59;101913.53;1567929;90;21078;-55
2022/12/14 16:29:22;;;;;;;5.17;3.83;;;;;;;8.71;59.53;101905.78;1517092;93;21180;-56
2022/12/14 16:31:48;;;;;;;3.55;2.75;;;;;;;8.74;59.10;101907.06;1515226;93;21146;-56
2022/12/14 16:34:18;;;;;;;4.60;3.30;;;;;;;8.77;57.29;101907.09;1519494;93;21107;-56
2022/12/14 16:36:45;;;;;;;4.30;3.02;;;;;;;8.82;56.38;101904.94;1518133;93;21116;-56
2022/12/14 16:39:19;;;;;;;4.47;3.17;;;;;;;8.90;56.20;101904.99;1521450;93;21176;-56
2022/12/14 16:44:40;;;;;;;5.97;3.72;;;;;;;8.97;56.78;101905.43;1510754;93;21152;-56
2022/12/14 16:47:18;;;;;;;4.30;3.50;;;;;;;9.00;57.61;101909.34;1495735;94;21155;-56
2022/12/14 16:49:54;;;;;;;7.28;3.50;;;;;;;8.99;57.92;101910.19;1489588;94;21648;-56
2022/12/14 16:52:29;;;;;;;7.50;3.92;;;;;;;8.97;58.13;101918.41;1496206;94;21102;-56
2022/12/14 16:55:15;;;;;;;4.33;3.60;;;;;;;8.97;58.53;101923.17;1532921;92;21079;-56
2022/12/14 16:57:50;;;;;;;4.67;3.52;;;;;;;8.96;58.69;101921.88;1520778;93;21111;-56
2022/12/14 17:00:30;;;;;;;7.87;4.25;;;;;;;8.96;58.69;101927.08;1538960;92;21114;-56
2022/12/14 17:03:01;;;;;;;5.08;3.95;;;;;;;8.95;58.63;101934.41;1525727;91;21119;-56
2022/12/14 17:05:36;;;;;;;4.78;3.62;;;;;;;8.95;58.91;101927.92;1526566;92;21087;-56
2022/12/14 17:08:03;;;;;;;4.22;3.80;;;;;;;8.95;58.69;101939.60;1534360;92;21552;-56
2022/12/14 17:10:31;;;;;;;8.33;3.95;;;;;;;8.93;58.79;101942.20;1547551;90;21105;-56
2022/12/14 17:13:01;;;;;;;14.47;4.45;;;;;;;8.93;59.08;101933.11;1551614;90;21204;-56
2022/12/14 17:15:32;;;;;;;5.58;3.65;;;;;;;8.96;59.14;101933.56;1501332;93;21106;-56
2022/12/14 17:18:00;;;;;;;6.97;3.33;;;;;;;9.03;58.71;101935.30;1508277;93;21133;-56
2022/12/14 22:28:31;;;;;;;16.20;8.13;;;;;;;6.75;77.44;101671.33;1802105;79;26599;-50
2022/12/14 22:31:02;;;;;;;11.68;7.30;;;;;;;7.83;72.07;101665.98;1769368;80;21535;-50
2022/12/14 22:33:31;;;;;;;10.78;7.30;;;;;;;8.09;70.67;101665.20;1749875;80;21022;-51
2022/12/14 22:35:57;;;;;;;12.73;6.58;;;;;;;8.24;69.99;101661.78;1667512;84;21097;-50
2022/12/14 22:38:25;;;;;;;10.35;6.87;;;;;;;8.37;69.77;101657.49;1668511;84;21076;-51
2022/12/14 22:40:52;;;;;;;9.23;5.97;;;;;;;8.50;68.94;101655.36;1663304;84;21094;-50
2022/12/14 22:43:18;;;;;;;11.97;6.80;;;;;;;8.61;68.87;101657.55;1663819;85;21145;-51
2022/12/14 22:45:45;;;;;;;10.08;6.78;;;;;;;8.75;68.36;101655.81;1670374;85;21529;-50
2022/12/14 22:48:12;;;;;;;11.00;6.35;;;;;;;8.85;68.23;101658.41;1669583;85;21114;-50
2022/12/14 22:50:39;;;;;;;9.28;5.97;;;;;;;8.97;67.69;101649.73;1670090;84;21156;-50
2022/12/14 22:53:06;;;;;;;15.90;6.30;;;;;;;9.07;67.25;101639.77;1663220;85;21053;-50
2022/12/14 22:55:33;;;;;;;10.40;6.10;;;;;;;9.18;66.94;101638.45;1666009;85;21121;-50
2022/12/14 22:57:59;;;;;;;9.95;6.03;;;;;;;9.26;66.90;101618.52;1661329;84;21721;-51
2022/12/14 23:00:26;;;;;;;11.95;6.75;;;;;;;9.33;66.48;101622.42;1652174;85;21053;-50
2022/12/14 23:02:53;;;;;;;9.30;6.20;;;;;;;9.42;66.29;101623.67;1666872;85;21530;-51
2022/12/14 23:05:20;;;;;;;9.55;6.65;;;;;;;9.48;65.83;101617.61;1671538;85;21030;-50
2022/12/14 23:07:46;;;;;;;12.07;6.37;;;;;;;9.52;65.87;101612.38;1668428;84;21046;-50
